Lakebay, Washington
Current Conditions -  °F | °C
As of 7:53 AM on Thursday 29 Jan 2015 (Local Time) from KTIW Reporting Station
Broken Clouds Broken Clouds  
Wind Chill: 40°   Ceiling: 600
Heat Index: 43°   Visibility: 10mi
Dew Point: 41°   Wind: 5mph
Humidity: 93%   Direction: 350°N
Pressure: 30.35"   Gusts: NA
Location:  47.26°N, 122.76°W
Report Text: KTIW 291553Z 35004KT 10SM BKN006 06/05 A3035 RMK AO2 SLP281 T00610050
Loading
Personal Weather Stations






























Interactive Weather Map New forecast layout! Learn more

10-Day Weather Forecast

Advertisements
Track Severe Weather on mobile